Port Tobacco, Maryland
Current Conditions -  °F | °C
As of 10:24 PM on Monday 26 Jan 2015 (Local Time) from KNYG Reporting Station
Light Rain Light Rain  
Wind Chill: 18°   Ceiling: 2100
Heat Index: 29°   Visibility: NA
Dew Point: 24°   Wind: 15mph
Humidity: 82%   Direction: 350°N
Pressure: 29.77"   Gusts: 23mph
Location:  38.51°N, 77.04°W
Report Text: KNYG 270324Z 35013G20KT -RA BKN021 OVC034 M02/M04 A2977 RMK AO2 P0001 T10171044 $
Loading
Personal Weather Stations






























Interactive Weather Map New forecast layout! Learn more

10-Day Weather Forecast

Advertisements
Track Severe Weather on mobile